Time;durP1;ratioP1;P1;durP2;ratioP2;P2;SDS_P1;SDS_P2;PMS_P1;PMS_P2;Temp;Humidity;BMP_temperature;BMP_pressure;BME280_temperature;BME280_humidity;BME280_pressure;Samples;Min_cycle;Max_cycle;Signal;HPM_P1;HPM_P2
2022/11/06 00:01:32;;;;;;;0.73;0.53;;;18.90;99.90;;;19.06;49.22;101270.91;4876819;28;97359;-53
2022/11/06 00:03:57;;;;;;;2.30;0.80;;;19.10;99.90;;;19.09;49.22;101278.72;4885064;28;97349;-52
2022/11/06 00:09:37;;;;;;;1.13;0.70;;;19.20;99.90;;;19.13;48.93;101280.28;4882398;28;101436;-50
2022/11/06 00:12:06;;;;;;;2.40;0.70;;;19.10;99.90;;;19.04;48.84;101267.47;4927035;28;97370;-52
2022/11/06 00:14:34;;;;;;;0.90;0.70;;;18.90;99.90;;;19.02;49.29;101269.38;4889631;28;98056;-51
2022/11/06 00:17:04;;;;;;;1.67;0.80;;;18.90;99.90;;;18.96;49.28;101277.78;4897474;28;97584;-51
2022/11/06 00:19:30;;;;;;;2.63;0.70;;;18.80;99.90;;;18.90;49.66;101280.81;4873961;28;97745;-53
2022/11/06 00:24:42;;;;;;;1.50;1.00;;;18.30;99.90;;;18.59;50.34;101277.28;4934672;28;97182;-54
2022/11/06 00:27:08;;;;;;;2.20;0.90;;;18.10;99.90;;;18.65;50.56;101276.94;4922326;28;99197;-52
2022/11/06 00:29:34;;;;;;;1.00;0.70;;;18.30;99.90;;;18.65;50.36;101266.25;4932266;28;97626;-53
2022/11/06 00:32:00;;;;;;;1.60;0.60;;;18.40;99.90;;;18.67;50.22;101268.88;4924794;28;97975;-54
2022/11/06 00:35:18;;;;;;;1.10;0.60;;;18.40;99.90;;;18.66;50.33;101272.44;4883251;28;97891;-53
2022/11/06 00:41:34;;;;;;;0.93;0.60;;;18.30;99.90;;;18.56;50.46;101282.81;4821872;28;102175;-54
2022/11/06 00:44:11;;;;;;;1.47;0.67;;;18.20;99.90;;;18.52;50.40;101277.75;4819376;28;101963;-53
2022/11/06 00:47:23;;;;;;;;;;;;;;;;;;;;;
2022/11/06 00:50:30;;;;;;;1.63;0.50;;;18.10;99.90;;;18.47;50.75;101283.34;4796266;28;115131;-55
2022/11/06 00:53:18;;;;;;;0.60;0.47;;;18.10;99.90;;;18.49;50.66;101281.44;4846383;28;101943;-54
2022/11/06 00:55:45;;;;;;;2.67;0.80;;;18.20;99.90;;;18.47;49.30;101282.47;4866848;28;97759;-54
2022/11/06 00:58:18;;;;;;;0.90;0.50;;;18.20;99.90;;;18.43;50.82;101287.16;4849417;28;97564;-56
2022/11/06 01:01:17;;;;;;;0.90;0.53;;;18.10;99.90;;;18.52;50.72;101286.63;4833459;28;97660;-55
2022/11/06 01:04:03;;;;;;;2.20;0.77;;;18.20;99.90;;;18.58;50.92;101285.38;4841841;28;100369;-53
2022/11/06 01:06:56;;;;;;;;;;;;;;;;;;;;;
2022/11/06 01:09:26;;;;;;;0.73;0.60;;;18.50;99.90;;;18.75;50.36;101265.72;4822887;28;113159;-53
2022/11/06 01:11:55;;;;;;;1.60;0.73;;;18.60;99.90;;;18.84;50.06;101274.03;4885639;27;97784;-59
2022/11/06 01:14:46;;;;;;;1.53;0.80;;;18.80;99.90;;;18.87;49.86;101275.66;4899005;28;99257;-53
2022/11/06 01:17:27;;;;;;;1.00;0.50;;;18.80;99.90;;;18.90;49.81;101275.47;4863111;28;97506;-54
2022/11/06 01:19:56;;;;;;;1.10;0.70;;;18.80;99.90;;;18.93;49.54;101270.78;4875848;28;97291;-53
2022/11/06 01:22:26;;;;;;;0.87;0.53;;;18.90;99.90;;;19.00;49.17;101258.78;4900315;28;97099;-54
2022/11/06 01:24:56;;;;;;;0.93;0.60;;;19.00;99.90;;;19.06;49.24;101246.84;4900168;28;96995;-55
2022/11/06 01:27:40;;;;;;;;;;;;;;;;;;;;;
2022/11/06 01:30:28;;;;;;;0.97;0.87;;;19.10;99.90;;;19.14;49.03;101247.25;4840596;28;110741;-53
2022/11/06 01:59:57;;;;;;;0.60;0.40;;;19.60;99.90;;;19.60;47.92;101212.25;5843146;23;98839;-58
2022/11/06 02:06:56;;;;;;;2.33;0.60;;;19.50;99.90;;;19.52;48.20;101214.53;5889677;23;100674;-55
2022/11/06 02:09:53;;;;;;;0.77;0.47;;;19.50;99.90;;;19.44;48.51;101211.50;5707310;23;97355;-59
2022/11/06 02:13:17;;;;;;;;;;;;;;;;;;;;;
2022/11/06 02:20:16;;;;;;;0.90;0.50;;;19.20;99.90;;;19.27;49.04;101204.56;5745200;23;101104;-55
2022/11/06 02:31:05;;;;;;;0.97;0.37;;;18.90;99.90;;;18.89;49.40;101209.59;5674268;24;100592;-57
2022/11/06 03:02:21;;;;;;;;;;;;;;;;;;;;;
2022/11/06 03:06:11;;;;;;;0.73;0.50;;;19.30;99.90;;;19.26;48.65;101187.66;5862873;23;131591;-56
2022/11/06 03:09:11;;;;;;;1.80;0.40;;;19.20;97.70;;;19.23;48.60;101187.81;5810646;23;98481;-57
2022/11/06 03:11:41;;;;;;;0.30;0.30;;;19.10;99.90;;;19.18;48.61;101189.94;5796327;23;97594;-57
2022/11/06 03:14:47;;;;;;;0.67;0.47;;;19.10;99.90;;;19.15;48.27;101187.47;5746672;23;98373;-55
2022/11/06 03:21:30;;;;;;;0.47;0.40;;;19.00;99.90;;;19.09;48.81;101182.47;5697352;23;97441;-51
2022/11/06 03:24:26;;;;;;;0.93;0.63;;;19.00;99.90;;;19.10;48.85;101164.66;5755579;23;97787;-57
2022/11/06 03:27:26;;;;;;;0.70;0.30;;;19.00;99.90;;;19.14;48.60;101158.16;5690232;23;103103;-56
2022/11/06 03:52:45;;;;;;;1.07;0.50;;;18.90;99.90;;;19.04;48.85;101187.25;5955781;22;97607;-55
2022/11/06 03:56:14;;;;;;;0.37;0.37;;;18.60;99.90;;;18.94;49.42;101191.47;5810006;23;97506;-56
2022/11/06 03:59:21;;;;;;;;;;;;;;;;;;;;;
2022/11/06 04:06:11;;;;;;;;;;;;;;;;;;;;;
2022/11/06 04:22:25;;;;;;;0.97;0.67;;;18.50;99.90;;;18.64;49.42;101168.34;5742405;23;97409;-56
2022/11/06 05:25:01;;;;;;;0.30;0.30;;;19.60;99.40;;;19.47;47.25;101086.41;5894851;23;99599;-57
2022/11/06 05:27:33;;;;;;;0.53;0.30;;;19.40;99.40;;;19.42;47.79;101082.34;5968770;23;97717;-53
2022/11/06 05:30:39;;;;;;;1.37;0.33;;;19.30;99.90;;;19.26;47.70;101075.31;5835087;23;99881;-58
2022/11/06 05:33:36;;;;;;;0.70;0.27;;;19.20;97.30;;;19.22;48.40;101072.91;5806493;23;101249;-57
2022/11/06 05:36:28;;;;;;;;;;;;;;;;;;;;;
2022/11/06 05:39:07;;;;;;;1.10;0.40;;;18.90;98.10;;;19.06;48.33;101057.03;5762875;23;114664;-57
2022/11/06 05:45:18;;;;;;;0.70;0.30;;;18.80;99.90;;;18.97;48.51;101052.28;5836892;23;102083;-53
2022/11/06 05:48:37;;;;;;;0.17;0.13;;;18.90;98.20;;;18.96;48.17;101056.78;5806438;23;102953;-54
2022/11/06 05:51:27;;;;;;;0.83;0.23;;;18.90;98.30;;;18.89;48.58;101054.59;5584602;23;97011;-55
2022/11/06 05:55:03;;;;;;;0.87;0.33;;;18.70;99.90;;;18.82;48.95;101050.59;5734699;23;97716;-56
2022/11/06 05:58:19;;;;;;;2.90;0.43;;;18.60;99.90;;;18.82;49.10;101042.59;5682828;23;101379;-57
2022/11/06 06:01:02;;;;;;;2.10;0.50;;;18.60;99.90;;;18.79;49.40;101048.09;5750810;23;97524;-58
2022/11/06 06:17:19;;;;;;;0.43;0.30;;;18.80;99.90;;;18.84;48.65;101032.66;4821048;27;97292;-56
2022/11/06 06:20:20;;;;;;;0.10;0.10;;;18.70;99.90;;;18.86;48.95;101034.25;4843057;28;97726;-54
2022/11/06 06:27:55;;;;;;;0.23;0.23;;;18.80;99.90;;;18.91;48.16;101017.91;4738980;28;101513;-56
2022/11/06 06:31:48;;;;;;;0.10;0.10;;;18.80;99.90;;;18.93;48.83;101002.63;4713698;28;98136;-56
2022/11/06 06:38:43;;;;;;;0.70;0.20;;;18.90;99.90;;;18.99;48.48;100999.56;4652608;29;101975;-55
2022/11/06 06:41:45;;;;;;;0.60;0.40;;;19.00;99.90;;;19.01;47.76;101011.03;4640282;29;100262;-56
2022/11/06 06:44:12;;;;;;;0.10;0.10;;;19.00;99.90;;;18.99;48.57;101012.94;4797034;28;97429;-54
2022/11/06 06:46:38;;;;;;;0.53;0.20;;;18.90;99.90;;;19.00;48.49;101014.66;4905074;28;97105;-54
2022/11/06 06:49:05;;;;;;;0.10;0.10;;;18.90;99.90;;;19.03;47.24;101025.16;4894109;28;103370;-56
2022/11/06 06:51:32;;;;;;;1.60;0.33;;;19.00;99.00;;;19.04;48.25;101021.50;4910388;28;97275;-55
2022/11/06 07:11:11;;;;;;;0.30;0.10;;;19.10;96.70;;;19.87;45.96;101036.47;5003361;27;97428;-53
2022/11/06 07:13:37;;;;;;;1.17;0.10;;;20.00;97.90;;;19.79;46.70;101036.13;4985574;27;98240;-56
2022/11/06 07:16:09;;;;;;;0.10;0.10;;;19.90;99.60;;;19.70;47.11;101035.91;4992183;27;103376;-56
2022/11/06 07:48:57;;;;;;;0.20;0.20;;;20.00;98.40;;;19.77;44.49;101035.38;5013744;27;103321;-53
2022/11/06 07:52:15;;;;;;;0.53;0.33;;;19.80;96.60;;;19.66;46.69;101024.53;4941639;27;97033;-53
2022/11/06 08:20:52;;;;;;;0.20;0.20;;;19.80;98.50;;;19.67;46.34;101009.31;6075544;22;1635333;-54
2022/11/06 08:23:18;;;;;;;0.30;0.30;;;19.70;99.00;;;19.60;44.90;100998.19;6141350;22;96975;-57
2022/11/06 08:25:44;;;;;;;0.50;0.50;;;19.70;97.40;;;19.46;45.24;100998.25;6143540;22;97420;-57
2022/11/06 08:28:10;;;;;;;0.20;0.10;;;19.60;96.90;;;19.43;46.10;100998.44;6108968;22;111143;-57
2022/11/06 08:30:36;;;;;;;0.30;0.20;;;19.50;98.60;;;19.30;44.46;100996.59;6143466;22;97073;-57
2022/11/06 08:33:06;;;;;;;0.80;0.37;;;19.40;97.20;;;19.19;47.23;100999.13;6111092;22;97054;-57
2022/11/06 08:35:33;;;;;;;0.77;0.40;;;19.20;99.20;;;19.17;47.67;101006.38;6142810;22;96923;-56
2022/11/06 08:37:59;;;;;;;1.80;0.23;;;19.20;99.90;;;19.17;46.18;100984.13;6139338;22;97276;-53
2022/11/06 08:40:25;;;;;;;0.20;0.20;;;19.30;98.50;;;19.23;46.95;100994.41;6140863;22;97083;-56
2022/11/06 08:42:51;;;;;;;0.13;0.13;;;19.30;98.50;;;19.26;47.55;100997.75;6113713;22;97028;-57
2022/11/06 12:52:24;;;;;;;1.17;0.57;;;18.90;98.70;;;19.06;48.33;100591.84;6049780;23;97325;-55
2022/11/06 12:55:14;;;;;;;0.10;0.10;;;19.00;99.60;;;18.94;48.13;100584.72;5937347;23;97224;-55
2022/11/06 12:58:58;;;;;;;0.90;0.50;;;18.70;98.40;;;18.89;46.31;100589.53;5919939;23;97643;-50
2022/11/06 13:01:53;;;;;;;1.13;0.40;;;18.80;98.20;;;18.82;48.64;100572.25;5609053;23;101325;-56
2022/11/06 13:05:06;;;;;;;0.50;0.20;;;18.60;99.90;;;18.84;48.57;100575.66;5732133;23;98452;-55
2022/11/06 13:08:58;;;;;;;0.30;0.30;;;18.70;99.90;;;18.87;48.56;100580.78;5843980;23;97305;-55
2022/11/06 13:12:32;;;;;;;1.23;0.47;;;18.90;99.90;;;18.97;48.03;100572.00;5672140;23;100106;-56
2022/11/06 17:00:28;;;;;;;;;;;;;;;;;;;;;
2022/11/06 18:09:05;;;;;;;0.20;0.20;;;19.10;97.80;;;19.16;46.90;100367.50;6114053;22;97400;-55
2022/11/06 18:12:24;;;;;;;0.47;0.37;;;19.10;98.70;;;19.19;46.93;100357.41;6112786;22;97193;-56
2022/11/06 18:14:50;;;;;;;0.93;0.63;;;19.20;99.00;;;19.10;47.24;100358.13;5972519;23;101770;-58
2022/11/06 18:17:16;;;;;;;0.83;0.63;;;19.10;99.00;;;19.08;47.04;100349.34;5978169;23;97658;-55
2022/11/06 18:19:42;;;;;;;0.70;0.50;;;19.00;98.90;;;19.10;47.13;100347.44;6025973;22;97704;-56
2022/11/06 18:22:07;;;;;;;1.00;0.53;;;19.10;99.10;;;19.08;46.85;100348.50;6066303;22;97186;-56
2022/11/06 18:24:37;;;;;;;0.40;0.40;;;19.10;99.30;;;19.07;47.42;100328.06;6074648;22;99579;-57
2022/11/06 18:29:31;;;;;;;0.87;0.53;;;18.80;98.20;;;18.79;47.87;100342.66;6035790;23;97944;-55
2022/11/06 18:31:57;;;;;;;0.87;0.63;;;18.60;99.20;;;18.72;47.39;100343.13;6039232;23;97410;-50
2022/11/06 18:34:23;;;;;;;0.33;0.33;;;18.50;98.10;;;18.61;45.07;100361.72;6070622;23;97419;-55
2022/11/06 18:36:50;;;;;;;1.10;0.50;;;18.40;97.70;;;18.68;48.10;100351.50;6071954;23;97446;-54
2022/11/06 18:39:15;;;;;;;0.57;0.37;;;18.50;99.80;;;18.70;47.19;100361.09;6034538;23;96626;-54
2022/11/06 18:41:41;;;;;;;0.60;0.40;;;18.60;98.00;;;18.63;48.36;100353.59;6045878;23;97477;-54
2022/11/06 18:44:07;;;;;;;1.10;0.73;;;18.40;99.70;;;18.65;44.80;100363.25;6060561;23;98052;-54
2022/11/06 18:46:33;;;;;;;0.33;0.30;;;18.50;97.00;;;18.67;48.29;100366.69;6044084;23;97360;-55
2022/11/06 18:48:59;;;;;;;0.80;0.63;;;18.50;99.90;;;18.62;48.64;100367.94;6059656;23;97360;-51
2022/11/06 18:51:30;;;;;;;1.80;0.70;;;18.40;99.90;;;18.57;42.75;100368.28;6069731;23;98066;-54
2022/11/06 18:53:58;;;;;;;0.67;0.63;;;18.40;96.80;;;18.51;48.60;100365.19;6060659;23;97735;-52
2022/11/06 18:56:25;;;;;;;1.03;0.60;;;18.20;99.20;;;18.54;48.82;100386.34;6065122;23;97269;-55
2022/11/06 18:58:51;;;;;;;0.47;0.40;;;18.20;99.90;;;18.45;48.88;100374.50;6037833;23;97746;-53
2022/11/06 19:01:18;;;;;;;1.80;0.73;;;18.20;99.90;;;18.42;48.67;100372.91;6070637;23;97229;-52
2022/11/06 19:03:45;;;;;;;0.87;0.60;;;18.10;99.10;;;18.49;49.09;100380.47;6067847;23;97595;-53
2022/11/06 19:06:15;;;;;;;2.73;0.60;;;18.20;99.90;;;18.48;49.01;100379.63;6063473;23;98191;-55
2022/11/06 19:08:42;;;;;;;0.60;0.53;;;18.30;99.90;;;18.51;47.49;100376.72;6068425;23;97360;-57
2022/11/06 19:11:09;;;;;;;1.33;0.90;;;18.30;98.40;;;18.55;48.33;100372.03;6067340;23;97572;-57
2022/11/06 19:13:36;;;;;;;0.30;0.30;;;18.30;99.00;;;18.47;47.99;100375.25;6027541;23;99457;-55
2022/11/06 19:16:04;;;;;;;1.53;0.70;;;18.20;98.70;;;18.41;48.79;100383.72;6030537;23;97471;-57
2022/11/06 19:18:36;;;;;;;1.20;0.50;;;18.00;99.90;;;18.40;49.07;100390.03;6067038;23;97584;-55
2022/11/06 19:21:04;;;;;;;1.67;0.80;;;18.00;99.90;;;18.27;48.73;100394.53;6035378;23;97607;-57
2022/11/06 19:23:30;;;;;;;0.53;0.43;;;17.80;99.30;;;18.29;49.65;100397.94;6037419;23;99081;-53
2022/11/06 19:25:56;;;;;;;0.77;0.37;;;17.90;99.90;;;18.33;49.54;100410.97;6032252;23;104677;-57
2022/11/06 19:28:22;;;;;;;1.10;0.67;;;17.90;99.90;;;18.36;49.53;100408.06;6067843;23;98082;-56
2022/11/06 19:30:48;;;;;;;0.50;0.50;;;18.00;99.90;;;18.39;49.06;100405.19;6046047;23;97286;-56
2022/11/06 19:33:14;;;;;;;0.70;0.50;;;18.10;98.90;;;18.45;46.75;100406.56;6032035;23;107434;-56
2022/11/06 19:35:40;;;;;;;0.60;0.40;;;18.20;99.20;;;18.54;49.03;100413.06;6035475;23;100610;-56
2022/11/06 19:38:06;;;;;;;0.90;0.60;;;18.30;99.90;;;18.61;48.61;100409.81;6034880;23;98005;-58
2022/11/06 19:40:32;;;;;;;0.87;0.60;;;18.50;99.50;;;18.58;49.02;100407.38;6041367;23;97009;-58
2022/11/06 19:42:59;;;;;;;0.60;0.53;;;18.40;99.90;;;18.65;48.65;100402.47;6032390;23;97480;-55
2022/11/06 19:45:25;;;;;;;1.23;0.70;;;18.50;99.90;;;18.71;48.44;100400.22;6042820;23;97645;-57
2022/11/06 19:47:52;;;;;;;1.50;0.67;;;18.60;99.80;;;18.74;48.48;100393.78;6034504;23;97490;-57
2022/11/06 19:50:18;;;;;;;0.90;0.50;;;18.60;99.70;;;18.76;46.27;100412.38;6041336;23;97341;-54
2022/11/06 19:52:46;;;;;;;1.47;0.83;;;18.60;97.50;;;18.72;46.43;100412.59;6036900;23;97737;-57
2022/11/06 19:55:12;;;;;;;1.13;0.80;;;18.50;97.40;;;18.69;48.37;100412.81;6033359;23;117095;-56
2022/11/06 19:57:38;;;;;;;0.40;0.40;;;18.50;99.90;;;18.73;47.49;100411.63;6037691;23;97458;-55
2022/11/06 20:00:05;;;;;;;0.40;0.30;;;18.50;98.20;;;18.70;47.91;100419.88;6034171;23;97042;-57
2022/11/06 20:02:31;;;;;;;0.87;0.73;;;18.40;99.50;;;18.60;46.36;100415.28;6039429;23;98175;-55
2022/11/06 20:04:57;;;;;;;0.47;0.40;;;18.30;99.00;;;18.55;49.13;100417.44;6036041;23;97724;-56
2022/11/06 20:07:25;;;;;;;0.63;0.40;;;18.20;99.90;;;18.54;48.60;100419.25;6041913;23;97866;-55
2022/11/06 20:09:53;;;;;;;0.90;0.40;;;18.30;99.90;;;18.64;48.72;100414.97;6035861;23;98012;-58
2022/11/06 20:12:19;;;;;;;1.13;0.63;;;18.40;99.90;;;18.63;48.11;100421.28;6040245;23;97135;-58
2022/11/06 20:14:47;;;;;;;1.33;0.90;;;18.40;98.40;;;18.42;48.35;100433.50;6039464;23;97656;-56
2022/11/06 20:17:13;;;;;;;1.07;0.47;;;18.10;99.50;;;18.41;49.19;100423.78;6035311;23;97183;-57
2022/11/06 20:19:40;;;;;;;2.27;0.80;;;18.10;99.90;;;18.40;44.49;100427.41;6041397;23;97233;-55
2022/11/06 20:22:06;;;;;;;1.23;0.43;;;18.10;97.40;;;18.01;44.51;100421.25;6033536;23;98788;-55
2022/11/06 20:24:33;;;;;;;1.47;0.80;;;17.70;97.10;;;17.95;47.83;100432.38;6036522;23;96787;-58
2022/11/06 20:26:59;;;;;;;1.63;0.50;;;17.60;99.00;;;17.77;50.26;100445.16;6029530;23;97145;-55
2022/11/06 20:29:26;;;;;;;1.37;0.70;;;17.20;99.90;;;17.71;45.16;100444.72;6065624;23;97539;-54
2022/11/06 20:31:52;;;;;;;2.57;0.50;;;17.20;98.10;;;17.46;46.54;100451.69;6058518;23;97621;-58
2022/11/06 20:34:17;;;;;;;0.90;0.60;;;17.00;98.60;;;17.42;46.98;100452.88;6064196;23;118221;-57
2022/11/06 20:36:43;;;;;;;0.70;0.40;;;17.00;99.30;;;17.05;45.90;100456.25;6071516;23;97342;-55
2022/11/06 20:39:09;;;;;;;0.77;0.57;;;16.60;99.30;;;17.10;50.66;100459.47;6058961;23;97206;-57
2022/11/06 20:41:35;;;;;;;0.97;0.40;;;16.50;99.90;;;16.98;47.96;100460.28;6061944;23;105762;-56
2022/11/06 20:44:01;;;;;;;0.77;0.60;;;16.50;99.90;;;16.94;52.64;100471.16;6033102;22;98072;-57
2022/11/06 20:46:26;;;;;;;0.83;0.70;;;16.40;99.90;;;16.85;49.73;100471.72;6098029;22;97206;-56
2022/11/06 20:48:52;;;;;;;0.43;0.40;;;16.40;99.90;;;16.90;48.47;100466.94;6093203;22;98743;-57
2022/11/06 20:51:24;;;;;;;1.03;0.30;;;16.40;99.90;;;16.78;47.97;100465.09;6094369;22;97392;-55
2022/11/06 20:53:51;;;;;;;2.03;0.40;;;16.30;99.90;;;16.91;49.08;100476.66;6071781;22;97760;-57
2022/11/06 20:56:19;;;;;;;0.57;0.40;;;16.40;99.90;;;17.03;48.36;100475.00;6094140;22;97142;-57
2022/11/06 20:58:45;;;;;;;0.30;0.30;;;16.60;99.90;;;17.24;52.50;100472.75;6095967;22;98861;-57
2022/11/06 21:01:19;;;;;;;0.50;0.33;;;16.80;99.90;;;17.25;52.16;100474.47;6066612;22;99108;-56
2022/11/06 21:03:48;;;;;;;1.00;0.33;;;16.90;99.90;;;17.24;50.01;100478.94;6094652;22;97656;-54
2022/11/06 21:06:15;;;;;;;0.47;0.40;;;16.80;99.90;;;17.14;52.41;100483.16;6089273;22;97426;-55
2022/11/06 21:08:41;;;;;;;0.50;0.30;;;16.70;99.90;;;17.20;52.16;100492.53;6095146;22;97629;-56
2022/11/06 21:11:17;;;;;;;0.83;0.50;;;16.70;99.90;;;16.91;51.07;100487.31;6084946;22;99093;-55
2022/11/06 21:13:46;;;;;;;0.40;0.20;;;16.50;99.90;;;16.87;52.12;100501.78;6091065;22;98238;-57
2022/11/06 21:16:23;;;;;;;0.70;0.40;;;16.40;99.90;;;16.71;47.55;100502.88;6097686;22;97264;-57
2022/11/06 21:18:49;;;;;;;0.50;0.33;;;16.40;99.90;;;16.60;52.20;100498.19;6084172;22;97423;-58
2022/11/06 21:21:20;;;;;;;0.67;0.40;;;16.10;99.90;;;16.60;49.01;100511.50;6085999;22;97516;-57
2022/11/06 21:23:48;;;;;;;0.43;0.37;;;16.20;99.90;;;16.80;49.57;100503.16;6095441;22;97639;-56
2022/11/06 21:26:18;;;;;;;0.93;0.40;;;16.40;99.90;;;16.79;52.23;100498.78;6095347;22;97405;-55
2022/11/06 21:28:44;;;;;;;2.20;0.30;;;16.30;99.90;;;16.87;52.14;100507.13;6095037;22;97541;-57
2022/11/06 21:31:18;;;;;;;0.60;0.23;;;16.40;99.90;;;16.73;51.74;100515.13;6090290;22;106375;-56
2022/11/06 21:33:48;;;;;;;0.30;0.30;;;16.30;99.90;;;16.70;48.78;100511.81;6095118;22;97036;-57
2022/11/06 21:36:18;;;;;;;0.67;0.20;;;16.40;99.90;;;16.73;48.28;100516.94;6092034;22;97440;-56
2022/11/06 21:38:44;;;;;;;1.07;0.40;;;16.40;99.90;;;16.55;48.82;100518.91;6098228;22;97050;-56
2022/11/06 21:41:17;;;;;;;0.93;0.40;;;16.20;99.90;;;16.54;50.15;100518.06;6090848;22;104362;-55
2022/11/06 21:43:43;;;;;;;0.43;0.43;;;16.20;99.90;;;16.56;53.12;100528.63;6094249;22;98092;-57
2022/11/06 21:46:11;;;;;;;0.93;0.30;;;16.10;99.90;;;16.67;53.09;100526.19;6094465;22;97246;-58
2022/11/06 21:48:38;;;;;;;1.50;0.30;;;16.20;99.90;;;16.69;53.25;100523.41;6098865;22;97378;-56
2022/11/06 21:51:10;;;;;;;0.37;0.30;;;16.30;99.90;;;16.65;49.74;100530.72;6093471;22;99422;-56
2022/11/06 21:56:23;;;;;;;1.30;0.40;;;16.30;99.90;;;16.72;53.67;100526.72;6097216;22;97596;-55
2022/11/06 21:58:51;;;;;;;0.73;0.60;;;16.30;99.90;;;16.56;51.63;100533.94;6097873;22;96814;-56
2022/11/06 22:01:18;;;;;;;0.50;0.40;;;16.20;99.90;;;16.48;50.45;100536.22;6065512;22;97827;-57
2022/11/06 22:03:44;;;;;;;1.50;0.40;;;16.20;99.90;;;16.45;52.84;100531.09;6069503;22;97403;-53
2022/11/06 22:06:13;;;;;;;0.33;0.30;;;16.00;99.90;;;16.47;50.02;100531.84;6070818;22;97492;-55
2022/11/06 22:08:42;;;;;;;1.40;0.53;;;16.10;99.90;;;16.49;50.13;100538.81;6100689;22;97408;-56
2022/11/06 22:11:27;;;;;;;1.13;0.60;;;16.10;99.90;;;16.65;50.39;100533.38;6095386;22;97395;-56
2022/11/06 22:13:55;;;;;;;1.13;0.60;;;16.20;99.90;;;16.81;50.12;100534.16;6100789;22;97292;-54
2022/11/06 22:16:26;;;;;;;0.20;0.17;;;16.50;99.90;;;16.90;52.84;100544.22;6096655;22;97414;-57
2022/11/06 22:18:52;;;;;;;0.57;0.40;;;16.40;99.90;;;16.85;49.01;100541.00;6099301;22;97077;-56
2022/11/06 22:21:21;;;;;;;0.77;0.20;;;16.50;99.90;;;16.85;52.68;100541.00;6067751;22;97767;-57
2022/11/06 22:26:59;;;;;;;0.53;0.30;;;16.60;99.90;;;16.87;52.26;100535.56;6039672;22;97247;-52
2022/11/06 22:29:25;;;;;;;0.20;0.17;;;16.40;99.90;;;17.00;53.23;100528.50;6098189;22;97538;-55
2022/11/06 22:31:51;;;;;;;0.13;0.10;;;16.50;99.90;;;17.06;53.00;100537.91;6105792;22;107099;-54
2022/11/06 22:34:17;;;;;;;0.43;0.27;;;16.50;99.90;;;17.03;51.89;100536.28;6097250;22;97272;-56
2022/11/06 22:36:43;;;;;;;3.30;0.30;;;16.50;99.90;;;16.99;50.29;100541.91;6078904;22;97422;-55
2022/11/06 22:39:10;;;;;;;1.10;0.40;;;16.50;99.90;;;16.94;51.93;100540.41;6096309;22;103870;-51
2022/11/06 22:41:37;;;;;;;1.87;0.33;;;16.40;99.90;;;16.98;53.00;100538.41;6077606;22;97034;-56
2022/11/06 22:44:04;;;;;;;0.93;0.20;;;16.40;99.90;;;17.15;52.95;100534.66;6096946;22;97653;-54
2022/11/06 22:46:30;;;;;;;0.50;0.27;;;16.60;99.90;;;17.10;52.66;100534.09;6101036;22;96891;-54
2022/11/06 22:48:56;;;;;;;1.07;0.50;;;16.60;99.90;;;17.03;52.12;100532.78;6101457;22;97248;-55
2022/11/06 22:51:28;;;;;;;0.77;0.30;;;16.60;99.90;;;17.06;50.05;100540.56;6095711;22;98758;-55
2022/11/06 22:53:55;;;;;;;0.67;0.20;;;16.60;99.90;;;17.09;51.46;100535.06;6098670;22;97403;-55
2022/11/06 22:56:22;;;;;;;0.23;0.23;;;16.70;99.90;;;17.11;52.13;100538.47;6097442;22;97575;-53
2022/11/06 22:58:53;;;;;;;0.77;0.30;;;16.70;99.90;;;17.02;51.82;100539.06;6120430;22;96884;-56
2022/11/06 23:01:22;;;;;;;0.80;0.40;;;16.60;99.90;;;16.99;51.33;100537.44;6115554;22;97125;-53
2022/11/06 23:03:48;;;;;;;4.00;0.40;;;16.50;99.90;;;17.02;50.81;100547.03;6124618;22;97221;-57
2022/11/06 23:06:14;;;;;;;0.40;0.10;;;16.60;99.90;;;17.12;52.65;100543.69;6121223;22;97138;-55
2022/11/06 23:08:40;;;;;;;0.20;0.20;;;16.60;99.90;;;17.04;51.81;100550.47;6100273;22;96928;-54
2022/11/06 23:11:14;;;;;;;0.10;0.10;;;16.60;99.90;;;17.09;52.16;100549.25;6120815;22;100701;-55
2022/11/06 23:13:40;;;;;;;1.93;0.50;;;16.60;99.90;;;16.98;52.20;100546.41;6122719;22;97451;-55
2022/11/06 23:19:14;;;;;;;0.60;0.30;;;16.50;99.90;;;16.91;50.00;100561.03;6117237;22;97397;-55
2022/11/06 23:21:42;;;;;;;0.40;0.20;;;16.50;99.90;;;16.91;50.25;100561.91;6120673;22;97275;-51
2022/11/06 23:24:09;;;;;;;0.20;0.20;;;16.50;99.90;;;16.88;52.01;100566.56;6111407;22;97281;-53
2022/11/06 23:26:35;;;;;;;1.07;0.30;;;16.40;99.90;;;16.97;53.06;100570.47;6119347;22;97454;-54
2022/11/06 23:29:01;;;;;;;0.80;0.40;;;16.50;99.90;;;17.03;53.28;100564.75;6121663;22;97388;-51
2022/11/06 23:31:26;;;;;;;0.20;0.20;;;16.50;99.90;;;16.95;53.11;100571.44;6083666;22;101719;-56
2022/11/06 23:33:53;;;;;;;0.33;0.30;;;16.50;99.90;;;17.03;53.09;100575.41;6109365;22;97438;-56
2022/11/06 23:36:19;;;;;;;0.30;0.30;;;16.50;99.90;;;17.08;51.03;100573.31;6110861;22;97763;-53
2022/11/06 23:38:45;;;;;;;0.47;0.47;;;16.60;99.90;;;17.06;52.53;100575.19;6115232;22;96851;-54
2022/11/06 23:44:01;;;;;;;0.10;0.10;;;16.60;99.90;;;17.19;51.72;100579.66;6118920;22;96764;-54
2022/11/06 23:46:30;;;;;;;0.20;0.20;;;16.70;99.90;;;17.23;50.79;100573.19;6088644;22;97245;-53
2022/11/06 23:48:56;;;;;;;0.37;0.30;;;16.80;99.90;;;17.21;52.41;100575.09;6119875;22;97307;-56
2022/11/06 23:51:24;;;;;;;0.63;0.50;;;16.80;99.90;;;17.14;49.33;100580.91;6114770;22;104853;-53
2022/11/06 23:53:50;;;;;;;0.17;0.17;;;16.70;99.90;;;17.11;52.23;100576.63;6119023;22;96980;-53
2022/11/06 23:56:16;;;;;;;0.90;0.40;;;16.60;99.90;;;17.12;52.10;100580.16;6114436;22;97377;-57
2022/11/06 23:58:42;;;;;;;0.50;0.33;;;16.70;99.90;;;17.06;52.93;100583.19;6120357;22;99072;-57
